createdAt,value
2019-02-05T00:00:28.716Z,2.33
2019-02-05T00:01:28.094Z,2.31
2019-02-05T00:02:28.185Z,2.31
2019-02-05T00:03:28.195Z,2.3
2019-02-05T00:04:28.206Z,2.24
2019-02-05T00:05:27.954Z,2.21
2019-02-05T00:06:28.022Z,2.26
2019-02-05T00:07:28.052Z,2.22
2019-02-05T00:08:28.872Z,2.27
2019-02-05T00:09:28.048Z,2.28
2019-02-05T00:10:28.035Z,2.28
2019-02-05T00:11:27.960Z,2.31
2019-02-05T00:12:28.011Z,2.31
2019-02-05T00:13:27.995Z,2.31
2019-02-05T00:14:27.946Z,2.33
2019-02-05T00:15:27.949Z,2.34
2019-02-05T00:16:28.720Z,2.31
2019-02-05T00:17:27.986Z,2.33
2019-02-05T00:18:27.978Z,2.3
2019-02-05T00:19:27.968Z,2.33
2019-02-05T00:20:28.056Z,2.33
2019-02-05T00:21:27.993Z,2.3
2019-02-05T00:22:28.625Z,2.33
2019-02-05T00:23:28.228Z,2.34
2019-02-05T00:24:28.033Z,2.31
2019-02-05T00:25:27.995Z,2.34
2019-02-05T00:26:27.978Z,2.33
2019-02-05T00:27:28.125Z,2.36
2019-02-05T00:28:28.049Z,2.34
2019-02-05T00:29:28.172Z,2.36
2019-02-05T00:30:28.057Z,2.34
2019-02-05T00:31:28.383Z,2.33
2019-02-05T00:32:28.182Z,2.33
2019-02-05T00:33:28.198Z,2.31
2019-02-05T00:34:28.125Z,2.28
2019-02-05T00:35:27.872Z,2.27
2019-02-05T00:36:27.995Z,2.31
2019-02-05T00:37:28.431Z,2.31
2019-02-05T00:38:28.359Z,2.31
2019-02-05T00:39:29.282Z,2.27
2019-02-05T00:40:27.983Z,2.3
2019-02-05T00:41:29.703Z,2.31
2019-02-05T00:42:28.344Z,2.33
2019-02-05T00:43:27.960Z,2.34
2019-02-05T00:44:27.950Z,2.33
2019-02-05T00:45:27.845Z,2.33
2019-02-05T00:46:27.866Z,2.36
2019-02-05T00:47:28.441Z,2.33
2019-02-05T00:48:27.854Z,2.33
2019-02-05T00:49:28.192Z,2.33
2019-02-05T00:50:27.926Z,2.31
2019-02-05T00:51:28.225Z,2.34
2019-02-05T00:52:28.217Z,2.31
2019-02-05T00:53:29.354Z,2.28
2019-02-05T00:54:27.971Z,2.28
2019-02-05T00:55:28.546Z,2.27
2019-02-05T00:56:28.141Z,2.24
2019-02-05T00:57:27.965Z,2.22
2019-02-05T00:58:28.100Z,2.2
2019-02-05T00:59:27.955Z,2.18
2019-02-05T01:00:28.180Z,2.21
2019-02-05T01:01:28.286Z,2.21
2019-02-05T01:02:27.964Z,2.21
2019-02-05T01:03:29.761Z,2.17
2019-02-05T01:04:28.089Z,2.14
2019-02-05T01:05:28.091Z,2.13
2019-02-05T01:06:27.873Z,2.14
2019-02-05T01:07:28.112Z,2.13
2019-02-05T01:08:27.849Z,2.11
2019-02-05T01:09:27.839Z,2.11
2019-02-05T01:10:28.665Z,2.14
2019-02-05T01:11:28.032Z,2.11
2019-02-05T01:12:28.253Z,2.14
2019-02-05T01:13:28.759Z,2.16
2019-02-05T01:14:28.046Z,2.17
2019-02-05T01:15:28.207Z,2.14
2019-02-05T01:16:27.842Z,2.17
2019-02-05T01:17:27.873Z,2.18
2019-02-05T01:18:28.453Z,2.17
2019-02-05T01:19:27.960Z,2.17
2019-02-05T01:20:27.833Z,2.14
2019-02-05T01:21:28.091Z,2.14
2019-02-05T01:22:28.104Z,2.1
2019-02-05T01:23:27.829Z,2.13
2019-02-05T01:24:27.772Z,2.11
2019-02-05T01:25:28.008Z,2.13
2019-02-05T01:26:31.844Z,2.14
2019-02-05T01:27:28.240Z,2.13
2019-02-05T01:28:28.052Z,2.13
2019-02-05T01:29:29.167Z,2.14
2019-02-05T01:30:27.777Z,2.16
2019-02-05T01:31:28.261Z,2.14
2019-02-05T01:32:28.170Z,2.13
2019-02-05T01:33:27.764Z,2.13
2019-02-05T01:34:28.824Z,2.11
2019-02-05T01:35:27.934Z,2.11
2019-02-05T01:36:28.033Z,2.11
2019-02-05T01:37:27.756Z,2.11
2019-02-05T01:38:27.906Z,2.13
2019-02-05T01:39:27.939Z,2.09
2019-02-05T01:40:29.357Z,2.09
2019-02-05T01:41:27.964Z,2.04
2019-02-05T01:42:28.248Z,2.04
2019-02-05T01:43:28.147Z,1.97
2019-02-05T01:44:27.781Z,1.94
2019-02-05T01:45:27.767Z,1.96
2019-02-05T01:46:28.274Z,1.99
2019-02-05T01:47:27.854Z,1.99
2019-02-05T01:48:27.745Z,1.97
2019-02-05T01:49:28.720Z,1.97
2019-02-05T01:50:27.825Z,1.94
2019-02-05T01:51:27.994Z,1.89
2019-02-05T01:52:28.300Z,1.9
2019-02-05T01:53:27.785Z,1.89
2019-02-05T01:54:27.740Z,1.89
2019-02-05T01:55:27.734Z,1.86
2019-02-05T01:56:27.739Z,1.87
2019-02-05T01:57:28.514Z,1.87
2019-02-05T01:58:27.728Z,1.86
2019-02-05T01:59:27.727Z,1.86
2019-02-05T02:00:31.170Z,1.85
2019-02-05T02:01:27.713Z,1.81
2019-02-05T02:02:27.905Z,1.82
2019-02-05T02:03:27.950Z,1.81
2019-02-05T02:04:28.182Z,1.81
2019-02-05T02:05:28.641Z,1.81
2019-02-05T02:06:28.094Z,1.78
2019-02-05T02:07:27.986Z,1.75
2019-02-05T02:08:28.202Z,1.75
2019-02-05T02:09:27.765Z,1.71
2019-02-05T02:10:28.013Z,1.69
2019-02-05T02:11:27.919Z,1.66
2019-02-05T02:12:28.255Z,1.64
2019-02-05T02:13:27.972Z,1.62
2019-02-05T02:14:27.841Z,1.58
2019-02-05T02:15:27.971Z,1.58
2019-02-05T02:16:27.710Z,1.59
2019-02-05T02:17:27.806Z,1.58
2019-02-05T02:18:28.068Z,1.57
2019-02-05T02:19:28.060Z,1.58
2019-02-05T02:20:28.922Z,1.59
2019-02-05T02:21:27.927Z,1.57
2019-02-05T02:22:27.743Z,1.54
2019-02-05T02:23:27.780Z,1.45
2019-02-05T02:24:28.006Z,1.45
2019-02-05T02:25:28.134Z,1.44
2019-02-05T02:26:28.017Z,1.43
2019-02-05T02:27:27.796Z,1.47
2019-02-05T02:28:28.771Z,1.45
2019-02-05T02:29:27.944Z,1.45
2019-02-05T02:30:27.766Z,1.44
2019-02-05T02:31:27.815Z,1.41
2019-02-05T02:32:27.682Z,1.43
2019-02-05T02:33:27.762Z,1.43
2019-02-05T02:34:28.084Z,1.41
2019-02-05T02:35:28.106Z,1.4
2019-02-05T02:36:27.978Z,1.38
2019-02-05T02:37:28.083Z,1.38
2019-02-05T02:38:27.708Z,1.41
2019-02-05T02:39:28.406Z,1.36
2019-02-05T02:40:27.892Z,1.34
2019-02-05T02:41:27.733Z,1.34
2019-02-05T02:42:27.814Z,1.36
2019-02-05T02:43:28.254Z,1.34
2019-02-05T02:44:27.791Z,1.34
2019-02-05T02:45:28.067Z,1.33
2019-02-05T02:46:27.687Z,1.31
2019-02-05T02:47:28.018Z,1.3
2019-02-05T02:48:27.648Z,1.31
2019-02-05T02:49:27.645Z,1.31
2019-02-05T02:50:28.072Z,1.3
2019-02-05T02:51:28.614Z,1.27
2019-02-05T02:52:27.749Z,1.3
2019-02-05T02:53:28.307Z,1.28
2019-02-05T02:54:27.661Z,1.27
2019-02-05T02:55:27.718Z,1.28
2019-02-05T02:56:27.730Z,1.27
2019-02-05T02:57:28.757Z,1.26
2019-02-05T02:58:28.037Z,1.23
2019-02-05T02:59:28.770Z,1.23
2019-02-05T03:00:28.053Z,1.23
2019-02-05T03:01:27.706Z,1.2
2019-02-05T03:02:28.063Z,1.16
2019-02-05T03:03:27.650Z,1.16
2019-02-05T03:04:28.075Z,1.19
2019-02-05T03:05:28.282Z,1.19
2019-02-05T03:06:29.944Z,1.19
2019-02-05T03:07:27.664Z,1.15
2019-02-05T03:08:27.788Z,1.11
2019-02-05T03:09:28.005Z,1.11
2019-02-05T03:10:27.920Z,1.11
2019-02-05T03:11:27.627Z,1.11
2019-02-05T03:12:27.708Z,1.09
2019-02-05T03:13:27.957Z,1.07
2019-02-05T03:14:27.703Z,1.06
2019-02-05T03:15:27.844Z,1.03
2019-02-05T03:16:27.633Z,1.03
2019-02-05T03:17:27.628Z,0.99
2019-02-05T03:18:27.858Z,0.99
2019-02-05T03:19:27.648Z,1
2019-02-05T03:20:28.090Z,1
2019-02-05T03:21:27.643Z,0.99
2019-02-05T03:22:27.786Z,0.98
2019-02-05T03:23:27.903Z,0.93
2019-02-05T03:24:27.681Z,0.86
2019-02-05T03:25:27.669Z,0.91
2019-02-05T03:26:27.653Z,0.89
2019-02-05T03:27:27.680Z,0.89
2019-02-05T03:28:27.817Z,0.88
2019-02-05T03:29:27.718Z,0.86
2019-02-05T03:30:27.661Z,0.85
2019-02-05T03:31:27.855Z,0.85
2019-02-05T03:32:27.642Z,0.86
2019-02-05T03:33:27.748Z,0.86
2019-02-05T03:34:27.731Z,0.86
2019-02-05T03:35:28.392Z,0.85
2019-02-05T03:36:27.652Z,0.86
2019-02-05T03:37:27.603Z,0.85
2019-02-05T03:38:27.631Z,0.83
2019-02-05T03:39:27.583Z,0.85
2019-02-05T03:40:27.594Z,0.82
2019-02-05T03:41:28.226Z,0.81
2019-02-05T03:42:28.094Z,0.81
2019-02-05T03:43:27.700Z,0.81
2019-02-05T03:44:27.866Z,0.79
2019-02-05T03:45:28.270Z,0.78
2019-02-05T03:46:27.832Z,0.76
2019-02-05T03:47:27.652Z,0.72
2019-02-05T03:48:27.844Z,0.69
2019-02-05T03:49:27.838Z,0.67
2019-02-05T03:50:27.648Z,0.63
2019-02-05T03:51:28.261Z,0.63
2019-02-05T03:52:27.706Z,0.63
2019-02-05T03:53:27.891Z,0.58
2019-02-05T03:54:28.201Z,0.63
2019-02-05T03:55:27.891Z,0.6
2019-02-05T03:56:28.005Z,0.63
2019-02-05T03:57:32.574Z,0.58
2019-02-05T03:58:27.623Z,0.55
2019-02-05T03:59:27.574Z,0.54
2019-02-05T04:00:29.434Z,0.58
2019-02-05T04:01:27.719Z,0.58
2019-02-05T04:02:27.614Z,0.55
2019-02-05T04:03:27.846Z,0.53
2019-02-05T04:04:27.552Z,0.54
2019-02-05T04:05:32.407Z,0.54
2019-02-05T04:06:27.555Z,0.5
2019-02-05T04:07:27.770Z,0.51
2019-02-05T04:08:27.776Z,0.51
2019-02-05T04:09:27.827Z,0.5
2019-02-05T04:10:27.891Z,0.46
2019-02-05T04:11:27.511Z,0.47
2019-02-05T04:12:29.415Z,0.46
2019-02-05T04:13:28.213Z,0.5
2019-02-05T04:14:27.753Z,0.5
2019-02-05T04:15:27.720Z,0.47
2019-02-05T04:16:27.592Z,0.5
2019-02-05T04:17:27.598Z,0.48
2019-02-05T04:18:27.521Z,0.48
2019-02-05T04:19:27.526Z,0.44
2019-02-05T04:20:28.383Z,0.43
2019-02-05T04:21:27.805Z,0.37
2019-02-05T04:22:27.713Z,0.37
2019-02-05T04:23:27.709Z,0.4
2019-02-05T04:24:27.563Z,0.36
2019-02-05T04:25:27.554Z,0.36
2019-02-05T04:26:27.587Z,0.34
2019-02-05T04:27:27.675Z,0.34
2019-02-05T04:28:28.844Z,0.34
2019-02-05T04:29:27.519Z,0.3
2019-02-05T04:30:27.570Z,0.36
2019-02-05T04:31:27.515Z,0.33
2019-02-05T04:32:27.581Z,0.32
2019-02-05T04:33:27.680Z,0.33
2019-02-05T04:34:28.413Z,0.3
2019-02-05T04:35:28.072Z,0.3
2019-02-05T04:36:28.543Z,0.3
2019-02-05T04:37:28.507Z,0.23
2019-02-05T04:38:27.632Z,0.22
2019-02-05T04:39:27.557Z,0.27
2019-02-05T04:40:27.681Z,0.29
2019-02-05T04:41:27.700Z,0.29
2019-02-05T04:42:27.551Z,0.27
2019-02-05T04:43:28.535Z,0.27
2019-02-05T04:44:27.607Z,0.26
2019-02-05T04:45:34.600Z,0.27
2019-02-05T04:46:27.522Z,0.29
2019-02-05T04:47:27.572Z,0.26
2019-02-05T04:48:27.616Z,0.3
2019-02-05T04:49:27.764Z,0.29
2019-02-05T04:50:27.683Z,0.27
2019-02-05T04:51:28.390Z,0.26
2019-02-05T04:52:27.569Z,0.22
2019-02-05T04:53:27.525Z,0.2
2019-02-05T04:54:27.609Z,0.2
2019-02-05T04:55:27.616Z,0.23
2019-02-05T04:56:27.688Z,0.25
2019-02-05T04:57:27.681Z,0.25
2019-02-05T04:58:27.804Z,0.25
2019-02-05T04:59:27.462Z,0.26
2019-02-05T05:00:27.705Z,0.3
2019-02-05T05:01:27.716Z,0.26
2019-02-05T05:02:27.524Z,0.27
2019-02-05T05:03:27.521Z,0.26
2019-02-05T05:04:27.549Z,0.22
2019-02-05T05:05:27.485Z,0.25
2019-02-05T05:06:28.174Z,0.23
2019-02-05T05:07:27.462Z,0.22
2019-02-05T05:08:27.760Z,0.22
2019-02-05T05:09:27.487Z,0.19
2019-02-05T05:10:27.478Z,0.16
2019-02-05T05:11:27.488Z,0.12
2019-02-05T05:12:27.557Z,0.12
2019-02-05T05:13:27.562Z,0.13
2019-02-05T05:14:32.803Z,0.16
2019-02-05T05:15:27.704Z,0.13
2019-02-05T05:16:27.485Z,0.13
2019-02-05T05:17:27.498Z,0.1
2019-02-05T05:18:27.474Z,0.1
2019-02-05T05:19:27.464Z,0.05
2019-02-05T05:20:27.415Z,0.08
2019-02-05T05:21:28.071Z,0.09
2019-02-05T05:22:27.465Z,0.09
2019-02-05T05:23:27.547Z,0.05
2019-02-05T05:24:27.508Z,0.06
2019-02-05T05:25:27.579Z,0.09
2019-02-05T05:26:27.602Z,0.06
2019-02-05T05:27:27.292Z,0.03
2019-02-05T05:28:28.113Z,0.03
2019-02-05T05:29:27.791Z,0.02
2019-02-05T05:30:27.705Z,0.02
2019-02-05T05:31:27.735Z,-0.02
2019-02-05T05:32:27.631Z,-0.04
2019-02-05T05:33:27.936Z,-0.08
2019-02-05T05:34:27.545Z,-0.05
2019-02-05T05:35:44.676Z,-0.02
2019-02-05T05:36:28.269Z,-0.01
2019-02-05T05:37:27.564Z,0.01
2019-02-05T05:38:28.181Z,-0.08
2019-02-05T05:39:27.658Z,-0.04
2019-02-05T05:40:27.680Z,-0.07
2019-02-05T05:41:28.499Z,-0.08
2019-02-05T05:42:27.417Z,-0.12
2019-02-05T05:43:28.111Z,-0.09
2019-02-05T05:44:27.709Z,-0.11
2019-02-05T05:45:27.439Z,-0.08
2019-02-05T05:46:27.410Z,-0.07
2019-02-05T05:47:27.650Z,-0.08
2019-02-05T05:48:27.471Z,-0.09
2019-02-05T05:49:28.156Z,-0.12
2019-02-05T05:50:27.544Z,-0.12
2019-02-05T05:51:28.573Z,-0.11
2019-02-05T05:52:27.434Z,-0.14
2019-02-05T05:53:27.517Z,-0.14
2019-02-05T05:54:28.166Z,-0.12
2019-02-05T05:55:27.446Z,-0.14
2019-02-05T05:56:27.666Z,-0.14
2019-02-05T05:57:27.511Z,-0.09
2019-02-05T05:58:28.004Z,-0.08
2019-02-05T05:59:27.696Z,-0.11
2019-02-05T06:00:27.443Z,-0.08
2019-02-05T06:01:27.367Z,-0.12
2019-02-05T06:02:27.705Z,-0.07
2019-02-05T06:03:28.357Z,-0.07
2019-02-05T06:04:27.621Z,-0.05
2019-02-05T06:05:27.538Z,-0.07
2019-02-05T06:06:27.536Z,-0.12
2019-02-05T06:07:27.499Z,-0.09
2019-02-05T06:08:27.741Z,-0.14
2019-02-05T06:09:27.385Z,-0.12
2019-02-05T06:10:27.530Z,-0.14
2019-02-05T06:11:27.416Z,-0.19
2019-02-05T06:12:28.301Z,-0.15
2019-02-05T06:13:28.001Z,-0.12
2019-02-05T06:14:28.001Z,-0.12
2019-02-05T06:15:27.522Z,-0.09
2019-02-05T06:16:27.942Z,-0.07
2019-02-05T06:17:27.630Z,-0.05
2019-02-05T06:18:28.554Z,-0.04
2019-02-05T06:19:27.427Z,-0.08
2019-02-05T06:20:27.597Z,-0.08
2019-02-05T06:21:27.841Z,-0.08
2019-02-05T06:22:27.481Z,-0.11
2019-02-05T06:23:27.640Z,-0.12
2019-02-05T06:24:27.598Z,-0.18
2019-02-05T06:25:27.430Z,-0.19
2019-02-05T06:26:27.709Z,-0.22
2019-02-05T06:27:27.355Z,-0.22
2019-02-05T06:28:35.047Z,-0.21
2019-02-05T06:29:28.165Z,-0.17
2019-02-05T06:30:27.503Z,-0.08
2019-02-05T06:31:27.407Z,-0.04
2019-02-05T06:32:27.327Z,-0.04
2019-02-05T06:33:27.407Z,0.02
2019-02-05T06:34:27.392Z,0.05
2019-02-05T06:35:27.738Z,0.03
2019-02-05T06:36:27.387Z,0.03
2019-02-05T06:37:27.502Z,0.01
2019-02-05T06:38:27.349Z,-0.02
2019-02-05T06:39:27.520Z,-0.04
2019-02-05T06:40:27.551Z,0.02
2019-02-05T06:41:27.482Z,0.01
2019-02-05T06:42:27.497Z,0.05
2019-02-05T06:43:27.994Z,0.05
2019-02-05T06:44:27.329Z,0.1
2019-02-05T06:45:27.391Z,0.12
2019-02-05T06:46:27.327Z,0.1
2019-02-05T06:47:27.351Z,0.15
2019-02-05T06:48:27.319Z,0.18
2019-02-05T06:49:27.341Z,0.2
2019-02-05T06:50:27.834Z,0.16
2019-02-05T06:51:27.370Z,0.2
2019-02-05T06:52:27.399Z,0.19
2019-02-05T06:53:27.318Z,0.19
2019-02-05T06:54:27.633Z,0.22
2019-02-05T06:55:27.328Z,0.18
2019-02-05T06:56:27.332Z,0.2
2019-02-05T06:57:27.318Z,0.13
2019-02-05T06:58:28.026Z,0.1
2019-02-05T06:59:27.398Z,0.08
2019-02-05T07:00:27.335Z,0.05
2019-02-05T07:01:27.300Z,0.08
2019-02-05T07:02:27.385Z,0.02
2019-02-05T07:03:27.502Z,-0.04
2019-02-05T07:04:29.145Z,-0.04
2019-02-05T07:05:27.833Z,-0.04
2019-02-05T07:06:27.313Z,-0.11
2019-02-05T07:07:27.299Z,-0.12
2019-02-05T07:08:27.542Z,-0.14
2019-02-05T07:09:27.541Z,-0.17
2019-02-05T07:10:27.579Z,-0.18
2019-02-05T07:11:27.548Z,-0.14
2019-02-05T07:12:27.373Z,-0.08
2019-02-05T07:13:28.600Z,-0.11
2019-02-05T07:14:27.513Z,-0.08
2019-02-05T07:15:27.383Z,-0.05
2019-02-05T07:16:27.444Z,-0.08
2019-02-05T07:17:27.297Z,-0.09
2019-02-05T07:18:27.697Z,-0.07
2019-02-05T07:19:27.525Z,-0.08
2019-02-05T07:20:28.133Z,-0.11
2019-02-05T07:21:27.346Z,-0.09
2019-02-05T07:22:27.623Z,-0.08
2019-02-05T07:23:27.491Z,-0.05
2019-02-05T07:24:27.442Z,-0.04
2019-02-05T07:25:27.386Z,-0.05
2019-02-05T07:26:27.250Z,-0.04
2019-02-05T07:27:27.412Z,-0.05
2019-02-05T07:28:27.563Z,-0.05
2019-02-05T07:29:27.249Z,-0.05
2019-02-05T07:30:27.444Z,-0.08
2019-02-05T07:31:27.502Z,-0.09
2019-02-05T07:32:29.127Z,-0.12
2019-02-05T07:33:27.400Z,-0.09
2019-02-05T07:34:27.424Z,-0.09
2019-02-05T07:35:28.027Z,-0.07
2019-02-05T07:36:27.644Z,-0.11
2019-02-05T07:37:27.326Z,-0.09
2019-02-05T07:38:27.581Z,-0.12
2019-02-05T07:39:27.902Z,-0.11
2019-02-05T07:40:27.424Z,-0.08
2019-02-05T07:41:27.360Z,-0.05
2019-02-05T07:42:28.074Z,-0.04
2019-02-05T07:43:27.473Z,-0.02
2019-02-05T07:44:27.441Z,-0.04
2019-02-05T07:45:27.595Z,0.01
2019-02-05T07:46:27.384Z,0.01
2019-02-05T07:47:27.444Z,0.02
2019-02-05T07:48:30.836Z,0.05
2019-02-05T07:49:27.914Z,0.05
2019-02-05T07:50:27.636Z,0.05
2019-02-05T07:51:27.356Z,0.03
2019-02-05T07:52:27.421Z,0.09
2019-02-05T07:53:27.320Z,0.08
2019-02-05T07:54:27.837Z,0.1
2019-02-05T07:55:27.422Z,0.13
2019-02-05T07:56:28.166Z,0.12
2019-02-05T07:57:27.201Z,0.13
2019-02-05T07:58:27.200Z,0.15
2019-02-05T07:59:27.478Z,0.18
2019-02-05T08:00:27.209Z,0.18
2019-02-05T08:01:27.530Z,0.22
2019-02-05T08:02:29.063Z,0.2
2019-02-05T08:03:27.654Z,0.22
2019-02-05T08:04:27.712Z,0.25
2019-02-05T08:05:27.434Z,0.27
2019-02-05T08:06:27.439Z,0.29
2019-02-05T08:07:27.280Z,0.33
2019-02-05T08:08:27.193Z,0.32
2019-02-05T08:09:27.395Z,0.32
2019-02-05T08:10:27.300Z,0.32
2019-02-05T08:11:27.380Z,0.32
2019-02-05T08:12:27.199Z,0.29
2019-02-05T08:13:27.265Z,0.3
2019-02-05T08:14:27.438Z,0.29
2019-02-05T08:15:27.182Z,0.3
2019-02-05T08:16:27.275Z,0.32
2019-02-05T08:17:27.791Z,0.34
2019-02-05T08:18:27.255Z,0.37
2019-02-05T08:19:27.161Z,0.38
2019-02-05T08:20:27.444Z,0.41
2019-02-05T08:21:29.046Z,0.43
2019-02-05T08:22:27.209Z,0.46
2019-02-05T08:23:27.151Z,0.48
2019-02-05T08:24:27.566Z,0.51
2019-02-05T08:25:27.283Z,0.5
2019-02-05T08:26:27.210Z,0.54
2019-02-05T08:27:27.298Z,0.57
2019-02-05T08:28:27.170Z,0.55
2019-02-05T08:29:27.152Z,0.61
2019-02-05T08:30:27.151Z,0.61
2019-02-05T08:31:27.291Z,0.64
2019-02-05T08:32:28.095Z,0.64
2019-02-05T08:33:27.247Z,0.72
2019-02-05T08:34:27.177Z,0.76
2019-02-05T08:35:27.165Z,0.76
2019-02-05T08:36:27.221Z,0.78
2019-02-05T08:37:27.410Z,0.81
2019-02-05T08:38:27.184Z,0.81
2019-02-05T08:39:27.935Z,0.86
2019-02-05T08:40:27.158Z,0.85
2019-02-05T08:41:27.202Z,0.93
2019-02-05T08:42:27.290Z,0.93
2019-02-05T08:43:27.129Z,0.93
2019-02-05T08:44:27.151Z,0.98
2019-02-05T08:45:27.147Z,0.98
2019-02-05T08:46:27.470Z,1.02
2019-02-05T08:47:27.163Z,1.03
2019-02-05T08:48:27.578Z,1.03
2019-02-05T08:49:27.180Z,1.06
2019-02-05T08:50:27.994Z,1.1
2019-02-05T08:51:27.179Z,1.13
2019-02-05T08:52:27.136Z,1.13
2019-02-05T08:53:27.412Z,1.13
2019-02-05T08:54:27.930Z,1.19
2019-02-05T08:55:27.275Z,1.22
2019-02-05T08:56:27.298Z,1.22
2019-02-05T08:57:27.126Z,1.24
2019-02-05T08:58:31.650Z,1.26
2019-02-05T08:59:28.093Z,1.3
2019-02-05T09:00:27.238Z,1.34
2019-02-05T09:01:28.390Z,1.37
2019-02-05T09:02:27.373Z,1.36
2019-02-05T09:03:27.234Z,1.4
2019-02-05T09:04:27.293Z,1.4
2019-02-05T09:05:27.279Z,1.41
2019-02-05T09:06:27.294Z,1.47
2019-02-05T09:07:27.629Z,1.47
2019-02-05T09:08:27.576Z,1.48
2019-02-05T09:09:28.953Z,1.5
2019-02-05T09:10:27.335Z,1.53
2019-02-05T09:11:27.151Z,1.54
2019-02-05T09:12:27.170Z,1.55
2019-02-05T09:13:27.091Z,1.59
2019-02-05T09:14:27.168Z,1.61
2019-02-05T09:15:30.118Z,1.64
2019-02-05T09:16:27.842Z,1.65
2019-02-05T09:17:27.129Z,1.66
2019-02-05T09:18:27.301Z,1.66
2019-02-05T09:19:27.492Z,1.71
2019-02-05T09:20:27.189Z,1.72
2019-02-05T09:21:27.397Z,1.76
2019-02-05T09:22:27.298Z,1.82
2019-02-05T09:23:28.123Z,1.73
2019-02-05T09:24:27.314Z,1.71
2019-02-05T09:25:27.145Z,1.73
2019-02-05T09:26:28.337Z,1.78
2019-02-05T09:27:27.145Z,1.78
2019-02-05T09:28:27.262Z,1.81
2019-02-05T09:29:33.848Z,1.83
2019-02-05T09:30:27.125Z,1.82
2019-02-05T09:31:27.068Z,1.82
2019-02-05T09:32:27.073Z,1.89
2019-02-05T09:33:27.113Z,1.9
2019-02-05T09:34:27.111Z,1.92
2019-02-05T09:35:27.142Z,1.96
2019-02-05T09:36:27.481Z,1.97
2019-02-05T09:37:27.610Z,1.97
2019-02-05T09:38:28.016Z,2.03
2019-02-05T09:39:27.052Z,2.09
2019-02-05T09:40:27.378Z,2.13
2019-02-05T09:41:27.635Z,2.13
2019-02-05T09:42:27.262Z,2.13
2019-02-05T09:43:27.326Z,2.16
2019-02-05T09:44:27.047Z,2.22
2019-02-05T09:45:27.693Z,2.22
2019-02-05T09:46:27.074Z,2.24
2019-02-05T09:47:27.185Z,2.24
2019-02-05T09:48:27.230Z,2.28
2019-02-05T09:49:27.295Z,2.28
2019-02-05T09:50:27.141Z,2.33
2019-02-05T09:51:27.377Z,2.34
2019-02-05T09:52:27.203Z,2.38
2019-02-05T09:53:27.301Z,2.38
2019-02-05T09:54:27.284Z,2.37
2019-02-05T09:55:27.307Z,2.4
2019-02-05T09:56:27.193Z,2.45
2019-02-05T09:57:27.132Z,2.49
2019-02-05T09:58:27.070Z,2.51
2019-02-05T09:59:27.179Z,2.52
2019-02-05T10:00:29.491Z,2.55
2019-02-05T10:01:28.064Z,2.56
2019-02-05T10:02:27.081Z,2.59
2019-02-05T10:03:27.048Z,2.59
2019-02-05T10:04:27.044Z,2.59
2019-02-05T10:05:27.025Z,2.68
2019-02-05T10:06:27.022Z,2.69
2019-02-05T10:07:27.593Z,2.73
2019-02-05T10:08:27.038Z,2.73
2019-02-05T10:09:27.094Z,2.76
2019-02-05T10:10:27.062Z,2.8
2019-02-05T10:11:27.039Z,2.82
2019-02-05T10:12:27.043Z,2.82
2019-02-05T10:13:27.069Z,2.83
2019-02-05T10:14:27.065Z,2.86
2019-02-05T10:15:27.161Z,2.86
2019-02-05T10:16:27.069Z,2.89
2019-02-05T10:17:27.063Z,2.9
2019-02-05T10:18:27.002Z,2.93
2019-02-05T10:19:27.045Z,2.93
2019-02-05T10:20:27.050Z,2.96
2019-02-05T10:21:27.122Z,3
2019-02-05T10:22:27.590Z,2.99
2019-02-05T10:23:27.087Z,3.04
2019-02-05T10:24:27.185Z,3.07
2019-02-05T10:25:27.036Z,3.1
2019-02-05T10:26:27.181Z,3.11
2019-02-05T10:27:27.015Z,3.14
2019-02-05T10:28:27.119Z,3.12
2019-02-05T10:29:27.429Z,3.18
2019-02-05T10:30:27.211Z,3.21
2019-02-05T10:31:27.034Z,3.24
2019-02-05T10:32:27.012Z,3.25
2019-02-05T10:33:27.011Z,3.28
2019-02-05T10:34:34.556Z,3.25
2019-02-05T10:35:27.157Z,3.29
2019-02-05T10:36:27.255Z,3.32
2019-02-05T10:37:27.589Z,3.34
2019-02-05T10:38:27.316Z,3.35
2019-02-05T10:39:27.135Z,3.41
2019-02-05T10:40:27.162Z,3.42
2019-02-05T10:41:27.207Z,3.46
2019-02-05T10:42:26.953Z,3.49
2019-02-05T10:43:27.214Z,3.51
2019-02-05T10:44:27.429Z,3.52
2019-02-05T10:45:27.636Z,3.58
2019-02-05T10:46:27.553Z,3.59
2019-02-05T10:47:28.679Z,3.62
2019-02-05T10:48:27.662Z,3.65
2019-02-05T10:49:26.978Z,3.7
2019-02-05T10:50:27.066Z,3.79
2019-02-05T10:51:28.819Z,3.8
2019-02-05T10:52:27.146Z,3.84
2019-02-05T10:53:27.400Z,3.86
2019-02-05T10:54:27.180Z,3.9
2019-02-05T10:55:26.966Z,3.91
2019-02-05T10:56:27.081Z,3.94
2019-02-05T10:57:27.718Z,3.97
2019-02-05T10:58:27.048Z,3.98
2019-02-05T10:59:27.628Z,4.02
2019-02-05T11:00:27.551Z,4.07
2019-02-05T11:01:27.094Z,4.08
2019-02-05T11:02:27.148Z,4.12
2019-02-05T11:03:28.176Z,4.18
2019-02-05T11:04:26.975Z,4.19
2019-02-05T11:05:26.922Z,4.14
2019-02-05T11:06:28.976Z,4.17
2019-02-05T11:07:27.172Z,4.15
2019-02-05T11:08:27.288Z,4.17
2019-02-05T11:09:27.313Z,4.19
2019-02-05T11:10:27.056Z,4.24
2019-02-05T11:11:27.415Z,4.26
2019-02-05T11:12:26.928Z,4.3
2019-02-05T11:13:27.039Z,4.35
2019-02-05T11:14:29.468Z,4.36
2019-02-05T11:15:27.349Z,4.4
2019-02-05T11:16:26.755Z,4.43
2019-02-05T11:17:27.149Z,4.48
2019-02-05T11:18:27.063Z,4.53
2019-02-05T11:19:26.912Z,4.56
2019-02-05T11:20:27.052Z,4.57
2019-02-05T11:21:28.060Z,4.49
2019-02-05T11:22:39.286Z,4.52
2019-02-05T11:23:27.290Z,4.6
2019-02-05T11:24:26.920Z,4.66
2019-02-05T11:25:27.183Z,4.74
2019-02-05T11:26:26.888Z,4.77
2019-02-05T11:27:27.526Z,4.76
2019-02-05T11:28:27.615Z,4.81
2019-02-05T11:29:27.308Z,4.86
2019-02-05T11:30:27.224Z,4.93
2019-02-05T11:31:27.037Z,5.01
2019-02-05T11:32:27.069Z,5.01
2019-02-05T11:33:26.980Z,5.07
2019-02-05T11:34:26.993Z,5.08
2019-02-05T11:35:28.756Z,5.08
2019-02-05T11:36:26.867Z,5.07
2019-02-05T11:37:27.041Z,5.07
2019-02-05T11:38:27.018Z,5.11
2019-02-05T11:39:26.949Z,5.14
2019-02-05T11:40:27.098Z,5.18
2019-02-05T11:41:27.061Z,5.18
2019-02-05T11:42:26.871Z,5.21
2019-02-05T11:43:27.817Z,5.11
2019-02-05T11:44:27.092Z,5.15
2019-02-05T11:45:27.213Z,5.21
2019-02-05T11:46:27.119Z,5.23
2019-02-05T11:47:26.882Z,5.29
2019-02-05T11:48:27.132Z,5.32
2019-02-05T11:49:26.877Z,5.33
2019-02-05T11:50:27.660Z,5.38
2019-02-05T11:51:27.155Z,5.42
2019-02-05T11:52:27.376Z,5.43
2019-02-05T11:53:27.674Z,5.47
2019-02-05T11:54:26.875Z,5.51
2019-02-05T11:55:27.203Z,5.56
2019-02-05T11:56:27.204Z,5.59
2019-02-05T11:57:27.194Z,5.43
2019-02-05T11:58:27.058Z,5.35
2019-02-05T11:59:27.362Z,5.45
2019-02-05T12:00:33.312Z,5.54
2019-02-05T12:01:39.458Z,5.54
2019-02-05T12:02:27.121Z,5.59
2019-02-05T12:03:27.343Z,5.7
2019-02-05T12:04:27.090Z,5.73
2019-02-05T12:05:28.170Z,5.75
2019-02-05T12:06:27.165Z,5.81
2019-02-05T12:07:27.179Z,5.83
2019-02-05T12:08:27.323Z,5.9
2019-02-05T12:09:27.446Z,5.92
2019-02-05T12:10:26.882Z,5.94
2019-02-05T12:11:27.394Z,6.01
2019-02-05T12:12:27.408Z,6
2019-02-05T12:13:26.988Z,5.88
2019-02-05T12:14:26.861Z,5.87
2019-02-05T12:15:27.417Z,5.95
2019-02-05T12:16:26.998Z,5.97
2019-02-05T12:17:27.544Z,6.02
2019-02-05T12:18:27.007Z,6.08
2019-02-05T12:19:27.446Z,6.12
2019-02-05T12:20:27.550Z,6.18
2019-02-05T12:21:26.828Z,6.23
2019-02-05T12:22:27.059Z,6.19
2019-02-05T12:23:26.973Z,6.22
2019-02-05T12:24:27.080Z,6.29
2019-02-05T12:25:26.861Z,6.33
2019-02-05T12:26:26.815Z,6.35
2019-02-05T12:27:26.843Z,6.36
2019-02-05T12:28:27.081Z,6.43
2019-02-05T12:29:26.858Z,6.44
2019-02-05T12:30:26.866Z,6.56
2019-02-05T12:31:27.113Z,6.61
2019-02-05T12:32:26.787Z,6.63
2019-02-05T12:33:27.678Z,6.7
2019-02-05T12:34:27.854Z,6.71
2019-02-05T12:35:27.546Z,6.71
2019-02-05T12:36:27.721Z,6.74
2019-02-05T12:37:26.909Z,6.74
2019-02-05T12:38:27.194Z,6.77
2019-02-05T12:39:27.060Z,6.81
2019-02-05T12:40:27.005Z,6.81
2019-02-05T12:41:27.235Z,6.85
2019-02-05T12:42:26.808Z,6.91
2019-02-05T12:43:27.073Z,7.01
2019-02-05T12:44:26.996Z,7.06
2019-02-05T12:45:28.637Z,6.98
2019-02-05T12:46:26.799Z,6.88
2019-02-05T12:47:26.878Z,6.85
2019-02-05T12:48:26.749Z,6.95
2019-02-05T12:49:27.645Z,6.98
2019-02-05T12:50:26.799Z,7.05
2019-02-05T12:51:27.033Z,7.05
2019-02-05T12:52:28.625Z,7.09
2019-02-05T12:53:27.041Z,7.18
2019-02-05T12:54:27.145Z,7.2
2019-02-05T12:55:26.931Z,7.2
2019-02-05T12:56:26.979Z,7.23
2019-02-05T12:57:27.698Z,7.29
2019-02-05T12:58:27.171Z,7.3
2019-02-05T12:59:26.903Z,7.3
2019-02-05T13:00:26.838Z,7.31
2019-02-05T13:01:27.292Z,7.33
2019-02-05T13:02:26.743Z,7.27
2019-02-05T13:03:26.811Z,7.09
2019-02-05T13:04:27.336Z,7.09
2019-02-05T13:05:26.802Z,7.13
2019-02-05T13:06:26.818Z,7.16
2019-02-05T13:07:26.853Z,7.18
2019-02-05T13:08:26.753Z,7.22
2019-02-05T13:09:26.763Z,7.27
2019-02-05T13:10:26.747Z,7.36
2019-02-05T13:11:26.792Z,7.36
2019-02-05T13:12:27.389Z,7.37
2019-02-05T13:13:26.731Z,7.39
2019-02-05T13:14:26.750Z,7.39
2019-02-05T13:15:26.747Z,7.44
2019-02-05T13:16:27.088Z,7.48
2019-02-05T13:17:26.713Z,7.41